Time;durP1;ratioP1;P1;durP2;ratioP2;P2;SDS_P1;SDS_P2;PMS_P1;PMS_P2;Temp;Humidity;BMP_temperature;BMP_pressure;BME280_temperature;BME280_humidity;BME280_pressure;Samples;Min_cycle;Max_cycle;Signal;HPM_P1;HPM_P2
2023/08/10 00:02:18;;;;;;;4.50;3.60;;;14.70;99.90;;;;;;8363679;28;20029;-82
2023/08/10 00:06:20;;;;;;;6.15;3.70;;;14.70;99.90;;;;;;8368817;28;20530;-82
2023/08/10 00:10:20;;;;;;;4.57;3.58;;;14.80;99.90;;;;;;8373551;28;20021;-82
2023/08/10 00:14:21;;;;;;;6.03;3.90;;;14.90;99.90;;;;;;8385845;28;20028;-81
2023/08/10 00:18:21;;;;;;;5.93;3.67;;;14.70;99.90;;;;;;8385183;28;20021;-81
2023/08/10 00:22:22;;;;;;;7.45;4.00;;;14.60;99.90;;;;;;8387318;28;20025;-82
2023/08/10 00:26:23;;;;;;;9.60;6.60;;;14.50;99.90;;;;;;8377495;28;20025;-82
2023/08/10 00:30:24;;;;;;;8.52;6.40;;;14.60;99.90;;;;;;8369176;28;20400;-82
2023/08/10 00:34:24;;;;;;;7.30;6.32;;;14.60;99.90;;;;;;8379542;28;20124;-82
2023/08/10 00:38:26;;;;;;;6.28;4.28;;;14.70;99.90;;;;;;8374361;28;20019;-81
2023/08/10 00:42:27;;;;;;;9.60;4.93;;;14.80;99.90;;;;;;8375879;28;20020;-82
2023/08/10 00:46:27;;;;;;;7.57;4.55;;;14.70;99.90;;;;;;8371728;28;20028;-81
2023/08/10 00:50:28;;;;;;;5.32;3.58;;;14.70;99.90;;;;;;8358964;28;20030;-81
2023/08/10 00:54:28;;;;;;;9.77;4.95;;;14.90;99.90;;;;;;8377778;28;20043;-81
2023/08/10 00:58:31;;;;;;;6.40;5.03;;;14.80;99.90;;;;;;8377001;28;20017;-81
2023/08/10 01:02:32;;;;;;;6.05;4.57;;;14.90;99.90;;;;;;8380729;28;20370;-80
2023/08/10 01:06:41;;;;;;;7.25;4.55;;;15.00;99.90;;;;;;8371031;28;20021;-81
2023/08/10 01:10:53;;;;;;;7.90;4.38;;;14.90;99.90;;;;;;8368536;28;20493;-82
2023/08/10 01:15:11;;;;;;;4.85;4.20;;;14.70;99.90;;;;;;8377972;28;20028;-82
2023/08/10 01:19:25;;;;;;;9.85;5.25;;;14.50;99.90;;;;;;8375845;28;20039;-81
2023/08/10 01:23:37;;;;;;;5.93;4.95;;;14.80;99.90;;;;;;8368033;28;20545;-81
2023/08/10 01:27:38;;;;;;;6.43;5.22;;;15.10;99.90;;;;;;8375176;28;20532;-79
2023/08/10 01:31:39;;;;;;;5.50;4.43;;;15.20;99.90;;;;;;8397060;28;20025;-81
2023/08/10 01:35:40;;;;;;;5.55;4.68;;;15.30;99.90;;;;;;8374859;28;20016;-82
2023/08/10 01:39:40;;;;;;;6.55;4.32;;;14.90;99.90;;;;;;8354468;28;20051;-81
2023/08/10 01:43:41;;;;;;;7.07;4.63;;;14.60;99.90;;;;;;8390533;28;20024;-81
2023/08/10 01:47:54;;;;;;;9.60;4.47;;;14.50;99.90;;;;;;8378957;28;20393;-81
2023/08/10 01:51:57;;;;;;;9.95;3.83;;;14.60;99.90;;;;;;8367733;28;20233;-82
2023/08/10 01:55:58;;;;;;;5.50;4.10;;;14.60;99.90;;;;;;8359050;28;20017;-80
2023/08/10 01:59:59;;;;;;;5.60;4.05;;;14.10;99.90;;;;;;8377092;28;20415;-81
2023/08/10 02:03:59;;;;;;;6.72;4.35;;;13.70;99.90;;;;;;8381821;28;20031;-82
2023/08/10 02:08:00;;;;;;;7.75;4.75;;;13.60;99.90;;;;;;8364983;28;20059;-80
2023/08/10 02:12:01;;;;;;;8.73;4.65;;;13.60;99.90;;;;;;8384449;28;20025;-81
2023/08/10 02:16:01;;;;;;;4.95;4.10;;;13.70;99.90;;;;;;8367040;28;20078;-82
2023/08/10 02:20:05;;;;;;;4.90;3.95;;;13.70;99.90;;;;;;8359143;28;20028;-81
2023/08/10 02:24:06;;;;;;;6.22;4.70;;;13.70;99.90;;;;;;8359431;28;20025;-81
2023/08/10 02:28:07;;;;;;;8.30;5.00;;;13.60;99.90;;;;;;8367706;28;20226;-81
2023/08/10 02:32:07;;;;;;;5.70;4.38;;;13.70;99.90;;;;;;8374624;28;20381;-81
2023/08/10 02:36:08;;;;;;;5.90;4.18;;;13.70;99.90;;;;;;8368090;28;20009;-82
2023/08/10 02:40:11;;;;;;;7.65;3.67;;;13.70;99.90;;;;;;8365440;28;20086;-81
2023/08/10 02:44:11;;;;;;;8.38;3.70;;;13.90;99.90;;;;;;8366191;28;20048;-81
2023/08/10 02:48:12;;;;;;;6.80;3.72;;;13.90;99.90;;;;;;8376156;28;20581;-82
2023/08/10 02:52:12;;;;;;;5.78;3.80;;;14.20;99.90;;;;;;8359611;28;20112;-82
2023/08/10 02:56:13;;;;;;;7.38;4.15;;;14.10;99.90;;;;;;8371472;28;20485;-82
2023/08/10 03:00:14;;;;;;;6.43;3.95;;;14.00;99.90;;;;;;8385002;28;20104;-81
2023/08/10 03:04:15;;;;;;;5.35;3.67;;;13.90;99.90;;;;;;8371394;28;20032;-82
2023/08/10 03:08:15;;;;;;;4.88;3.63;;;14.10;99.90;;;;;;8375410;28;20035;-82
2023/08/10 03:12:16;;;;;;;6.32;3.65;;;14.00;99.90;;;;;;8372570;28;20028;-81
2023/08/10 03:16:17;;;;;;;4.78;3.47;;;14.40;99.90;;;;;;8357573;28;20033;-81
2023/08/10 03:20:18;;;;;;;4.47;3.70;;;14.00;99.90;;;;;;8370003;28;20098;-81
2023/08/10 03:24:18;;;;;;;6.80;3.63;;;13.60;99.90;;;;;;8389491;28;20024;-82
2023/08/10 03:28:19;;;;;;;4.18;3.75;;;13.50;99.90;;;;;;8351067;28;20156;-81
2023/08/10 03:32:19;;;;;;;4.40;3.75;;;13.60;99.90;;;;;;8362238;28;20056;-82
2023/08/10 03:36:20;;;;;;;4.50;4.03;;;13.50;99.90;;;;;;8360318;28;20488;-82
2023/08/10 03:40:21;;;;;;;6.10;4.40;;;13.40;99.90;;;;;;8368558;28;21288;-81
2023/08/10 03:44:21;;;;;;;5.65;4.90;;;13.20;99.90;;;;;;8363203;28;20040;-82
2023/08/10 03:48:22;;;;;;;8.05;4.57;;;13.10;99.90;;;;;;8366160;28;20025;-82
2023/08/10 03:52:23;;;;;;;4.90;4.40;;;13.00;99.90;;;;;;8386160;28;20384;-80
2023/08/10 03:56:24;;;;;;;5.28;4.47;;;12.90;99.90;;;;;;8373395;28;20017;-81
2023/08/10 04:00:24;;;;;;;7.80;5.07;;;12.70;99.90;;;;;;8370783;28;20400;-80
2023/08/10 04:04:25;;;;;;;7.47;5.25;;;12.60;99.90;;;;;;8386275;28;20502;-80
2023/08/10 04:08:26;;;;;;;9.43;5.30;;;12.40;99.90;;;;;;8373372;28;20025;-80
2023/08/10 04:12:27;;;;;;;6.35;5.38;;;12.40;99.90;;;;;;8342598;28;20025;-81
2023/08/10 04:16:28;;;;;;;6.97;5.72;;;12.30;99.90;;;;;;8377474;28;20424;-81
2023/08/10 04:20:30;;;;;;;6.35;5.53;;;12.40;99.90;;;;;;8371374;28;20023;-81
2023/08/10 04:24:31;;;;;;;7.35;6.53;;;12.40;99.90;;;;;;8365964;28;20036;-81
2023/08/10 04:28:32;;;;;;;7.80;6.05;;;12.40;99.90;;;;;;8363271;28;20103;-81
2023/08/10 04:32:32;;;;;;;11.13;6.63;;;12.50;99.90;;;;;;8373290;28;20368;-81
2023/08/10 04:36:33;;;;;;;10.13;7.15;;;12.70;99.90;;;;;;8371371;28;20029;-81
2023/08/10 04:40:33;;;;;;;10.55;6.10;;;12.90;99.90;;;;;;8357627;28;20025;-81
2023/08/10 04:44:34;;;;;;;7.25;5.97;;;12.80;99.90;;;;;;8385360;28;20021;-80
2023/08/10 04:48:35;;;;;;;8.35;6.22;;;13.00;99.90;;;;;;8370344;28;20024;-80
2023/08/10 04:52:36;;;;;;;7.50;5.60;;;13.00;99.90;;;;;;8376388;28;20043;-81
2023/08/10 04:56:37;;;;;;;9.68;6.20;;;13.10;99.90;;;;;;8357189;28;20028;-81
2023/08/10 05:00:38;;;;;;;7.90;6.28;;;13.10;99.90;;;;;;8378298;28;20020;-80
2023/08/10 05:04:39;;;;;;;9.27;6.57;;;13.10;99.90;;;;;;8391939;28;20113;-81
2023/08/10 05:08:39;;;;;;;11.30;7.57;;;13.10;99.90;;;;;;8363915;28;20028;-80
2023/08/10 05:12:40;;;;;;;8.90;7.15;;;13.30;99.90;;;;;;8364822;28;20108;-80
2023/08/10 05:16:40;;;;;;;10.70;7.47;;;13.50;99.90;;;;;;8392202;28;20020;-80
2023/08/10 05:20:41;;;;;;;10.52;8.30;;;13.50;99.90;;;;;;8388502;28;20488;-81
2023/08/10 05:24:41;;;;;;;9.20;7.00;;;13.60;99.90;;;;;;8366996;28;20060;-80
2023/08/10 05:28:42;;;;;;;9.70;6.75;;;13.80;99.90;;;;;;8376429;28;20024;-81
2023/08/10 05:32:44;;;;;;;7.18;5.88;;;14.30;99.90;;;;;;8387046;28;20028;-80
2023/08/10 05:36:44;;;;;;;7.95;6.30;;;14.60;99.90;;;;;;8357543;28;20021;-81
2023/08/10 05:40:45;;;;;;;11.30;6.82;;;14.50;99.90;;;;;;8354308;28;20487;-80
2023/08/10 05:44:45;;;;;;;8.23;5.85;;;14.60;99.90;;;;;;8357995;28;20028;-80
2023/08/10 05:48:46;;;;;;;8.32;6.10;;;15.30;99.90;;;;;;8361149;28;20196;-80
2023/08/10 05:52:47;;;;;;;7.80;6.95;;;15.30;99.90;;;;;;8353212;28;20021;-80
2023/08/10 05:56:48;;;;;;;8.25;7.10;;;15.40;99.90;;;;;;8370292;28;20031;-79
2023/08/10 06:00:48;;;;;;;7.45;5.88;;;16.40;99.90;;;;;;8375123;28;20067;-80
2023/08/10 06:04:49;;;;;;;5.75;5.10;;;17.80;99.90;;;;;;8379431;28;20032;-81
2023/08/10 06:08:50;;;;;;;6.05;4.60;;;18.30;99.90;;;;;;8369158;28;20020;-80
2023/08/10 06:12:50;;;;;;;5.20;4.57;;;19.10;99.90;;;;;;8354645;28;20092;-79
2023/08/10 06:16:51;;;;;;;5.72;4.50;;;19.90;99.90;;;;;;8346553;28;20044;-80
2023/08/10 06:20:51;;;;;;;6.13;4.15;;;20.60;99.90;;;;;;8355688;28;20098;-81
2023/08/10 06:24:52;;;;;;;5.90;4.25;;;20.90;99.90;;;;;;8355379;28;20036;-80
2023/08/10 06:28:53;;;;;;;3.78;3.05;;;21.40;99.90;;;;;;8370084;28;20025;-80
2023/08/10 06:32:53;;;;;;;3.75;3.45;;;21.50;99.90;;;;;;8368649;28;20078;-81
2023/08/10 06:36:54;;;;;;;3.80;3.17;;;21.80;99.90;;;;;;8361195;28;20260;-82
2023/08/10 06:40:55;;;;;;;3.78;3.40;;;22.10;99.90;;;;;;8366471;28;20019;-82
2023/08/10 06:44:56;;;;;;;5.03;3.72;;;22.40;99.90;;;;;;8368821;28;20074;-82
2023/08/10 06:48:57;;;;;;;3.97;3.35;;;23.00;99.90;;;;;;8350653;28;20477;-79
2023/08/10 06:52:57;;;;;;;4.25;3.58;;;23.30;99.90;;;;;;8357607;28;20032;-80
2023/08/10 06:56:58;;;;;;;4.82;3.55;;;23.60;99.90;;;;;;8357994;28;20021;-80
2023/08/10 07:01:00;;;;;;;3.80;3.50;;;23.80;99.90;;;;;;8350660;28;20031;-80
2023/08/10 07:05:01;;;;;;;3.50;3.20;;;23.80;99.90;;;;;;8385300;28;20047;-80
2023/08/10 07:09:03;;;;;;;3.03;2.72;;;24.30;99.90;;;;;;8350918;28;20031;-80
2023/08/10 07:13:04;;;;;;;4.80;2.75;;;23.90;99.90;;;;;;8373918;28;20103;-80
2023/08/10 07:17:05;;;;;;;3.13;2.65;;;23.80;99.90;;;;;;8341177;28;20029;-80
2023/08/10 07:21:06;;;;;;;2.30;2.10;;;23.70;99.90;;;;;;8373345;28;20029;-80
2023/08/10 07:25:07;;;;;;;2.47;1.70;;;24.30;99.90;;;;;;8357811;28;20023;-80
2023/08/10 07:29:08;;;;;;;1.42;1.33;;;24.30;99.90;;;;;;8357403;28;20017;-80
2023/08/10 07:33:09;;;;;;;2.25;1.50;;;25.00;99.90;;;;;;8365675;28;20470;-80
2023/08/10 07:37:10;;;;;;;4.07;1.80;;;25.70;99.90;;;;;;8363648;28;20028;-80
2023/08/10 07:41:11;;;;;;;2.75;1.80;;;25.50;99.90;;;;;;8364933;28;20020;-80
2023/08/10 07:45:11;;;;;;;1.98;1.75;;;24.80;99.90;;;;;;8354531;28;20542;-80
2023/08/10 07:49:12;;;;;;;2.38;1.88;;;24.70;99.90;;;;;;8382984;28;20021;-80
2023/08/10 07:53:13;;;;;;;3.22;1.90;;;23.80;99.90;;;;;;8355368;28;20044;-80
2023/08/10 07:57:13;;;;;;;1.77;1.67;;;23.20;99.90;;;;;;8372195;28;20029;-80
2023/08/10 08:01:14;;;;;;;2.60;1.73;;;22.80;99.90;;;;;;8381666;28;20032;-79
2023/08/10 08:05:16;;;;;;;2.10;1.63;;;22.50;99.90;;;;;;8381010;28;20051;-80
2023/08/10 08:09:16;;;;;;;2.10;1.60;;;22.60;99.90;;;;;;8366546;28;20025;-81
2023/08/10 08:13:17;;;;;;;2.00;1.80;;;22.90;99.90;;;;;;8382233;28;20033;-80
2023/08/10 08:17:19;;;;;;;2.67;1.98;;;23.00;99.90;;;;;;8378056;28;20544;-80
2023/08/10 08:21:24;;;;;;;3.92;1.80;;;22.90;99.90;;;;;;8370445;28;20465;-80
2023/08/10 08:25:25;;;;;;;3.70;1.52;;;22.80;99.90;;;;;;8370897;28;20133;-79
2023/08/10 08:29:25;;;;;;;2.38;2.08;;;22.80;99.90;;;;;;8378403;28;20028;-80
2023/08/10 08:33:26;;;;;;;4.07;1.90;;;22.80;99.90;;;;;;8378162;28;20016;-79
2023/08/10 08:37:26;;;;;;;2.33;2.10;;;22.80;99.90;;;;;;8378239;28;20336;-79
2023/08/10 08:41:35;;;;;;;3.60;2.28;;;23.10;99.90;;;;;;8386654;28;20029;-80
2023/08/10 08:45:35;;;;;;;4.10;3.03;;;23.30;99.90;;;;;;8367896;28;20035;-79
2023/08/10 08:49:37;;;;;;;4.28;3.08;;;23.40;99.90;;;;;;8368184;28;20051;-80
2023/08/10 08:53:38;;;;;;;3.42;3.00;;;23.80;99.90;;;;;;8376992;28;20020;-79
2023/08/10 08:57:39;;;;;;;3.85;3.00;;;23.80;99.90;;;;;;8377346;28;20505;-79
2023/08/10 09:01:40;;;;;;;3.75;3.22;;;23.80;99.90;;;;;;8372054;28;20036;-79
2023/08/10 09:05:41;;;;;;;4.13;3.00;;;24.30;99.90;;;;;;8385266;28;20602;-79
2023/08/10 09:09:41;;;;;;;3.97;2.80;;;24.40;99.90;;;;;;8368511;28;20103;-79
2023/08/10 09:14:03;;;;;;;5.38;3.20;;;24.20;99.90;;;;;;8368193;28;20040;-80
2023/08/10 09:18:05;;;;;;;5.07;3.30;;;24.30;99.90;;;;;;8376896;28;20021;-80
2023/08/10 09:22:06;;;;;;;6.65;3.90;;;24.60;99.90;;;;;;8367948;28;20111;-80
2023/08/10 09:26:08;;;;;;;3.95;3.20;;;24.50;99.90;;;;;;8386435;28;20029;-78
2023/08/10 09:30:10;;;;;;;6.50;3.33;;;24.40;99.90;;;;;;8376353;28;20488;-80
2023/08/10 09:34:13;;;;;;;4.00;3.03;;;24.50;99.90;;;;;;8375303;28;20507;-80
2023/08/10 09:38:19;;;;;;;3.60;3.28;;;24.60;99.90;;;;;;8367278;28;20028;-80
2023/08/10 09:42:20;;;;;;;4.13;3.72;;;24.60;99.90;;;;;;8375752;28;20040;-80
2023/08/10 09:46:23;;;;;;;3.58;3.10;;;24.40;99.90;;;;;;8370925;28;20029;-80
2023/08/10 09:50:23;;;;;;;3.85;3.50;;;24.50;99.90;;;;;;8359068;28;20172;-80
2023/08/10 09:54:24;;;;;;;3.65;3.20;;;24.60;99.90;;;;;;8372965;28;20051;-80
2023/08/10 09:58:25;;;;;;;5.15;3.38;;;24.80;99.90;;;;;;8367578;28;20350;-80
2023/08/10 10:02:26;;;;;;;4.32;3.65;;;25.30;99.90;;;;;;8372580;28;20033;-79
2023/08/10 10:06:27;;;;;;;3.85;3.45;;;26.00;99.90;;;;;;8342676;28;20115;-81
2023/08/10 10:10:30;;;;;;;4.60;4.07;;;26.10;99.90;;;;;;8362148;28;20024;-80
2023/08/10 10:14:31;;;;;;;4.38;3.90;;;26.10;99.90;;;;;;8374088;28;20508;-80
2023/08/10 10:18:35;;;;;;;4.57;4.13;;;26.00;99.90;;;;;;8375097;28;20020;-79
2023/08/10 10:22:36;;;;;;;3.72;3.42;;;25.70;99.90;;;;;;8374741;28;20021;-80
2023/08/10 10:26:38;;;;;;;4.25;3.63;;;25.60;99.90;;;;;;8362959;28;20024;-80
2023/08/10 10:30:54;;;;;;;4.47;3.90;;;26.50;99.90;;;;;;8370670;28;20280;-81
2023/08/10 10:34:54;;;;;;;4.65;4.10;;;27.10;99.90;;;;;;8373699;28;20021;-80
2023/08/10 10:39:07;;;;;;;5.05;4.13;;;27.80;99.90;;;;;;8389071;28;20021;-80
2023/08/10 10:43:08;;;;;;;4.55;3.40;;;26.60;99.90;;;;;;8369898;28;20085;-80
2023/08/10 10:47:17;;;;;;;4.70;3.15;;;26.30;99.90;;;;;;8364856;28;20032;-80
2023/08/10 10:51:17;;;;;;;3.97;2.70;;;25.00;99.90;;;;;;8391425;28;20028;-79
2023/08/10 10:55:18;;;;;;;3.83;3.15;;;23.00;99.90;;;;;;8374176;28;20082;-80
2023/08/10 10:59:20;;;;;;;5.70;3.80;;;22.60;99.90;;;;;;8373134;28;20127;-80
2023/08/10 11:03:21;;;;;;;3.40;3.05;;;22.90;99.90;;;;;;8371276;28;20562;-80
2023/08/10 11:07:21;;;;;;;4.20;2.70;;;24.70;99.90;;;;;;8376769;28;20016;-80
2023/08/10 11:11:23;;;;;;;4.00;2.55;;;26.80;99.90;;;;;;8381348;28;20512;-81
2023/08/10 11:15:24;;;;;;;3.38;2.70;;;27.30;99.90;;;;;;8372856;28;20035;-81
2023/08/10 11:19:28;;;;;;;3.05;2.38;;;27.50;99.90;;;;;;8374305;28;20020;-81
2023/08/10 11:23:29;;;;;;;2.33;2.13;;;29.10;99.90;;;;;;8390390;28;20029;-80
2023/08/10 11:27:29;;;;;;;2.80;2.17;;;29.80;98.90;;;;;;8372814;28;20154;-80
2023/08/10 11:31:40;;;;;;;4.72;2.00;;;30.10;99.90;;;;;;8390048;28;20507;-81
2023/08/10 11:35:44;;;;;;;2.13;1.80;;;31.60;97.80;;;;;;8370830;28;20099;-80
2023/08/10 11:39:44;;;;;;;2.90;2.05;;;32.30;93.90;;;;;;8372493;28;20023;-80
2023/08/10 11:43:46;;;;;;;2.97;2.00;;;32.70;91.20;;;;;;8366027;28;20487;-80
2023/08/10 11:47:58;;;;;;;2.10;1.90;;;31.00;91.40;;;;;;8366142;28;20485;-81
2023/08/10 11:52:02;;;;;;;2.83;2.05;;;30.10;92.40;;;;;;8356991;28;20036;-80
2023/08/10 11:56:07;;;;;;;3.88;2.35;;;28.10;96.10;;;;;;8368952;28;20137;-80
2023/08/10 12:00:21;;;;;;;3.28;2.25;;;26.60;97.00;;;;;;8361689;28;20032;-80
2023/08/10 12:04:22;;;;;;;2.40;2.10;;;26.60;98.30;;;;;;8382581;28;20024;-80
2023/08/10 12:08:28;;;;;;;2.35;2.05;;;27.60;94.70;;;;;;8389337;28;20044;-80
2023/08/10 12:12:28;;;;;;;2.78;2.10;;;26.90;95.90;;;;;;8368043;28;20501;-81
2023/08/10 12:16:29;;;;;;;3.92;2.03;;;28.60;96.40;;;;;;8368560;28;20043;-80
2023/08/10 12:20:30;;;;;;;3.38;2.22;;;29.60;94.40;;;;;;8364371;28;20412;-81
2023/08/10 12:24:30;;;;;;;3.25;2.08;;;29.50;93.30;;;;;;8370972;28;20029;-80
2023/08/10 12:28:31;;;;;;;2.83;2.30;;;30.00;92.60;;;;;;8364353;28;20212;-80
2023/08/10 12:32:32;;;;;;;4.07;2.58;;;28.70;91.50;;;;;;8366548;28;20227;-80
2023/08/10 12:36:32;;;;;;;2.47;2.10;;;28.60;92.40;;;;;;8379093;28;20016;-80
2023/08/10 12:40:34;;;;;;;4.00;2.30;;;27.60;93.60;;;;;;8359042;28;20078;-80
2023/08/10 12:44:34;;;;;;;2.47;2.25;;;26.50;96.20;;;;;;8349701;28;20435;-79
2023/08/10 12:48:35;;;;;;;2.60;2.40;;;28.50;95.30;;;;;;8362665;28;20078;-80
2023/08/10 12:52:36;;;;;;;3.03;2.25;;;29.00;93.40;;;;;;8380323;28;20048;-80
2023/08/10 12:56:37;;;;;;;2.38;1.98;;;30.80;90.90;;;;;;8366283;28;20024;-80
2023/08/10 13:00:37;;;;;;;3.03;2.35;;;31.60;90.30;;;;;;8373000;28;20033;-80
2023/08/10 13:04:38;;;;;;;2.45;2.10;;;30.70;90.30;;;;;;8366162;28;20659;-80
2023/08/10 13:08:38;;;;;;;2.63;2.00;;;31.10;86.00;;;;;;8369493;28;20082;-80
2023/08/10 13:12:41;;;;;;;3.00;2.08;;;31.50;85.10;;;;;;8366121;28;20032;-80
2023/08/10 13:16:42;;;;;;;2.78;2.10;;;31.10;83.90;;;;;;8392336;28;20017;-80
2023/08/10 13:20:42;;;;;;;4.65;2.13;;;31.20;84.00;;;;;;8390781;28;20032;-81
2023/08/10 13:24:43;;;;;;;2.90;2.20;;;33.10;81.40;;;;;;8377654;28;20119;-80
2023/08/10 13:28:43;;;;;;;2.78;2.45;;;33.20;72.60;;;;;;8376066;28;20034;-81
2023/08/10 13:32:44;;;;;;;2.67;2.13;;;34.80;74.70;;;;;;8375910;28;20085;-81
2023/08/10 13:36:44;;;;;;;2.45;2.20;;;34.70;72.90;;;;;;8369476;28;20039;-81
2023/08/10 13:40:45;;;;;;;5.20;2.30;;;33.20;75.20;;;;;;8377079;28;20074;-81
2023/08/10 13:44:46;;;;;;;2.50;2.20;;;32.80;79.80;;;;;;8359187;28;20400;-80
2023/08/10 13:48:47;;;;;;;3.90;2.28;;;33.30;70.00;;;;;;8358535;28;20024;-82
2023/08/10 13:52:47;;;;;;;2.75;2.40;;;33.90;76.80;;;;;;8392043;28;20040;-79
2023/08/10 13:56:59;;;;;;;3.28;2.25;;;34.80;63.00;;;;;;8374368;28;20024;-81
2023/08/10 14:00:59;;;;;;;3.95;2.28;;;35.40;71.50;;;;;;8373258;28;20048;-81
2023/08/10 14:05:00;;;;;;;2.67;2.15;;;36.80;64.10;;;;;;8373082;28;20032;-80
2023/08/10 14:09:01;;;;;;;2.42;2.05;;;37.80;57.50;;;;;;8365573;28;20400;-81
2023/08/10 14:13:01;;;;;;;2.92;2.17;;;38.10;56.00;;;;;;8365578;28;20025;-81
2023/08/10 14:17:02;;;;;;;2.60;2.28;;;38.20;53.80;;;;;;8390317;28;20066;-81
2023/08/10 14:21:03;;;;;;;3.03;2.35;;;37.80;55.10;;;;;;8357533;28;20111;-82
2023/08/10 14:25:04;;;;;;;2.40;2.20;;;38.60;55.70;;;;;;8390013;28;20020;-80
2023/08/10 14:29:05;;;;;;;4.05;1.98;;;39.30;57.00;;;;;;8391250;28;20051;-82
2023/08/10 14:33:05;;;;;;;3.88;2.17;;;39.10;54.60;;;;;;8381413;28;20051;-81
2023/08/10 14:37:06;;;;;;;2.40;2.20;;;39.10;51.90;;;;;;8385401;28;20477;-81
2023/08/10 14:41:06;;;;;;;2.40;2.10;;;39.40;50.40;;;;;;8365638;28;20464;-81
2023/08/10 14:45:08;;;;;;;3.47;2.58;;;39.60;49.50;;;;;;8389194;28;20484;-81
2023/08/10 14:49:09;;;;;;;4.15;2.10;;;39.50;49.30;;;;;;8382566;28;20066;-80
2023/08/10 14:53:09;;;;;;;2.42;2.10;;;39.20;49.60;;;;;;8371056;28;20119;-81
2023/08/10 14:57:10;;;;;;;2.45;2.20;;;39.20;50.40;;;;;;8382260;28;20542;-81
2023/08/10 15:01:10;;;;;;;4.68;2.20;;;37.10;51.80;;;;;;8383235;28;20039;-81
2023/08/10 15:05:13;;;;;;;2.53;2.33;;;37.50;54.00;;;;;;8357437;28;20031;-81
2023/08/10 15:09:14;;;;;;;3.10;2.30;;;37.60;51.80;;;;;;8366482;28;20499;-79
2023/08/10 15:13:14;;;;;;;2.05;1.85;;;36.20;53.70;;;;;;8366880;28;20043;-81
2023/08/10 15:17:15;;;;;;;2.70;2.20;;;36.20;54.20;;;;;;8366562;28;20488;-80
2023/08/10 15:21:16;;;;;;;3.65;2.40;;;36.50;52.10;;;;;;8357694;28;20025;-80
2023/08/10 15:25:17;;;;;;;2.53;2.20;;;36.00;54.10;;;;;;8369315;28;20082;-79
2023/08/10 15:29:17;;;;;;;3.65;2.10;;;35.60;56.70;;;;;;8376710;28;20057;-81
2023/08/10 15:33:18;;;;;;;3.38;2.33;;;33.80;57.70;;;;;;8359632;28;20056;-80
2023/08/10 15:37:20;;;;;;;3.10;2.20;;;33.00;57.70;;;;;;8369529;28;20024;-80
2023/08/10 15:41:20;;;;;;;3.38;2.40;;;31.80;61.90;;;;;;8373039;28;20484;-81
2023/08/10 15:45:21;;;;;;;3.03;2.28;;;32.70;60.40;;;;;;8356358;28;20051;-81
2023/08/10 15:49:22;;;;;;;3.07;2.13;;;34.50;57.90;;;;;;8383145;28;20028;-81
2023/08/10 15:53:22;;;;;;;4.40;2.33;;;33.40;61.90;;;;;;8365339;28;20465;-80
2023/08/10 15:57:23;;;;;;;4.93;2.63;;;29.50;66.80;;;;;;8372785;28;20017;-80
2023/08/10 16:01:24;;;;;;;2.83;2.45;;;27.10;73.70;;;;;;8357734;28;20025;-81
2023/08/10 16:05:25;;;;;;;3.55;2.50;;;26.00;79.60;;;;;;8359879;28;20225;-80
2023/08/10 16:09:25;;;;;;;3.03;2.25;;;25.50;80.30;;;;;;8385496;28;20028;-80
2023/08/10 16:13:26;;;;;;;3.38;2.60;;;25.40;87.50;;;;;;8352720;28;20056;-80
2023/08/10 16:17:26;;;;;;;4.43;2.20;;;25.30;86.90;;;;;;8352005;28;20048;-80
2023/08/10 16:21:27;;;;;;;3.85;2.60;;;25.10;87.60;;;;;;8372326;28;20024;-80
2023/08/10 16:25:27;;;;;;;2.78;2.28;;;24.90;91.40;;;;;;8360639;28;20031;-80
2023/08/10 16:29:28;;;;;;;3.75;2.38;;;24.80;90.40;;;;;;8366744;28;20027;-80
2023/08/10 16:33:28;;;;;;;5.13;2.53;;;24.80;90.00;;;;;;8363898;28;20420;-80
2023/08/10 16:37:29;;;;;;;3.30;2.38;;;24.60;92.40;;;;;;8373229;28;20545;-80
2023/08/10 16:41:29;;;;;;;3.15;2.25;;;24.60;90.60;;;;;;8363297;28;20102;-80
2023/08/10 16:45:30;;;;;;;3.15;2.65;;;24.60;91.90;;;;;;8385298;28;20106;-80
2023/08/10 16:49:31;;;;;;;3.95;2.50;;;24.60;92.90;;;;;;8362733;28;20029;-80
2023/08/10 16:53:31;;;;;;;3.83;2.40;;;24.50;92.50;;;;;;8364104;28;20021;-81
2023/08/10 16:57:32;;;;;;;4.45;2.67;;;24.40;94.80;;;;;;8361549;28;20052;-80
2023/08/10 17:01:33;;;;;;;2.80;2.40;;;24.40;95.60;;;;;;8382644;28;20029;-80
2023/08/10 17:05:33;;;;;;;3.88;2.67;;;24.30;95.40;;;;;;8375160;28;20489;-80
2023/08/10 17:09:34;;;;;;;3.63;2.50;;;24.00;97.00;;;;;;8360630;28;20481;-80
2023/08/10 17:13:35;;;;;;;3.28;2.35;;;23.40;97.80;;;;;;8358302;28;20029;-81
2023/08/10 17:17:35;;;;;;;3.53;2.60;;;23.10;97.70;;;;;;8375090;28;20024;-80
2023/08/10 17:21:36;;;;;;;3.83;2.78;;;23.10;97.00;;;;;;8361185;28;20040;-80
2023/08/10 17:25:37;;;;;;;5.97;2.50;;;22.60;98.60;;;;;;8359214;28;20055;-80
2023/08/10 17:29:37;;;;;;;2.63;2.40;;;22.10;99.90;;;;;;8373222;28;20040;-80
2023/08/10 17:33:39;;;;;;;3.20;2.60;;;21.80;99.90;;;;;;8349255;28;20017;-80
2023/08/10 17:37:39;;;;;;;2.70;2.30;;;21.60;99.90;;;;;;8352132;28;20511;-78
2023/08/10 17:41:44;;;;;;;3.45;2.40;;;21.30;99.90;;;;;;8372968;28;20021;-80
2023/08/10 17:45:44;;;;;;;4.10;2.92;;;21.30;99.90;;;;;;8384314;28;20055;-80
2023/08/10 17:49:46;;;;;;;2.75;2.30;;;21.10;99.90;;;;;;8368510;28;20016;-80
2023/08/10 17:53:47;;;;;;;5.72;2.30;;;20.90;99.90;;;;;;8357262;28;20021;-80
2023/08/10 17:57:49;;;;;;;7.28;2.63;;;20.70;99.90;;;;;;8382319;28;20035;-80
2023/08/10 18:01:49;;;;;;;3.92;2.72;;;20.50;99.90;;;;;;8360851;28;20055;-79
2023/08/10 18:05:50;;;;;;;4.43;3.28;;;20.20;99.90;;;;;;8374350;28;20052;-80
2023/08/10 18:09:52;;;;;;;2.97;2.58;;;20.10;99.90;;;;;;8385972;28;20028;-80
2023/08/10 18:13:52;;;;;;;7.32;2.40;;;19.90;99.90;;;;;;8395183;23;20032;-80
2023/08/10 18:17:53;;;;;;;4.13;2.58;;;19.80;99.90;;;;;;8391755;28;20125;-81
2023/08/10 18:21:53;;;;;;;4.53;2.58;;;20.10;99.90;;;;;;8407451;28;20074;-78
2023/08/10 18:25:58;;;;;;;3.05;2.60;;;20.10;99.90;;;;;;8360161;28;20032;-79
2023/08/10 18:29:59;;;;;;;8.75;3.00;;;19.80;99.90;;;;;;8344445;28;20060;-80
2023/08/10 18:33:59;;;;;;;4.88;2.90;;;19.50;99.90;;;;;;8381811;28;20404;-80
2023/08/10 18:38:00;;;;;;;3.65;3.08;;;19.40;99.90;;;;;;8389005;28;20039;-79
2023/08/10 18:42:01;;;;;;;3.10;2.60;;;19.40;99.90;;;;;;8381439;28;20526;-79
2023/08/10 18:46:01;;;;;;;3.13;2.67;;;19.30;99.90;;;;;;8370780;28;20439;-79
2023/08/10 18:50:02;;;;;;;4.20;3.42;;;19.10;99.90;;;;;;8387907;28;20059;-81
2023/08/10 18:54:03;;;;;;;6.72;3.22;;;18.80;99.90;;;;;;8370088;28;20150;-79
2023/08/10 18:58:04;;;;;;;4.03;3.15;;;18.50;99.90;;;;;;8371375;28;20553;-80
2023/08/10 19:02:05;;;;;;;4.55;3.28;;;18.30;99.90;;;;;;8363341;28;20021;-80
2023/08/10 19:06:05;;;;;;;11.43;3.25;;;18.00;99.90;;;;;;8367626;28;20131;-81
2023/08/10 19:10:08;;;;;;;4.68;2.88;;;17.80;99.90;;;;;;8370193;28;20496;-79
2023/08/10 19:14:08;;;;;;;4.30;3.03;;;17.60;99.90;;;;;;8387087;28;20036;-80
2023/08/10 19:18:09;;;;;;;4.35;3.00;;;17.60;99.90;;;;;;8362808;28;20501;-79
2023/08/10 19:22:09;;;;;;;6.03;3.50;;;17.50;99.90;;;;;;8347592;28;20040;-80
2023/08/10 19:26:10;;;;;;;4.50;3.42;;;17.60;99.90;;;;;;8361663;28;20031;-79
2023/08/10 19:30:11;;;;;;;4.95;3.50;;;17.40;99.90;;;;;;8354625;28;20104;-79
2023/08/10 19:34:11;;;;;;;5.38;3.67;;;17.30;99.90;;;;;;8368695;28;20028;-80
2023/08/10 19:38:12;;;;;;;6.53;3.95;;;17.30;99.90;;;;;;8362940;28;20070;-79
2023/08/10 19:42:12;;;;;;;4.72;3.38;;;17.20;99.90;;;;;;8387905;28;20039;-77
2023/08/10 19:46:13;;;;;;;4.22;3.47;;;17.00;99.90;;;;;;8356178;28;20028;-80
2023/08/10 19:50:14;;;;;;;4.47;3.88;;;17.00;99.90;;;;;;8349442;28;20033;-79
2023/08/10 19:54:14;;;;;;;6.45;3.80;;;16.90;99.90;;;;;;8363030;28;20420;-79
2023/08/10 19:58:16;;;;;;;8.57;4.55;;;16.70;99.90;;;;;;8364345;28;20032;-78
2023/08/10 20:02:16;;;;;;;5.28;4.25;;;16.60;99.90;;;;;;8356666;28;20024;-79
2023/08/10 20:06:18;;;;;;;4.60;3.92;;;16.50;99.90;;;;;;8367457;28;20028;-79
2023/08/10 20:10:19;;;;;;;5.80;3.63;;;16.30;99.90;;;;;;8370419;28;20029;-77
2023/08/10 20:14:20;;;;;;;6.35;4.10;;;16.20;99.90;;;;;;8394961;28;20028;-78
2023/08/10 20:18:21;;;;;;;6.28;4.25;;;16.00;99.90;;;;;;8366020;28;20116;-81
2023/08/10 20:22:21;;;;;;;4.45;3.80;;;15.80;99.90;;;;;;8398748;28;20548;-79
2023/08/10 20:26:22;;;;;;;6.78;4.18;;;15.70;99.90;;;;;;8370564;28;20020;-80
2023/08/10 20:30:23;;;;;;;4.43;3.83;;;15.80;99.90;;;;;;8375200;28;20029;-79
2023/08/10 20:34:23;;;;;;;4.70;4.00;;;16.00;99.90;;;;;;8375214;28;20049;-80
2023/08/10 20:38:24;;;;;;;6.65;4.55;;;15.70;99.90;;;;;;8376979;28;20040;-79
2023/08/10 20:42:24;;;;;;;12.77;4.38;;;15.60;99.90;;;;;;8380216;28;20549;-79
2023/08/10 20:46:26;;;;;;;6.05;4.22;;;15.70;99.90;;;;;;8381901;28;20084;-79
2023/08/10 20:50:27;;;;;;;5.75;4.35;;;15.50;99.90;;;;;;8368766;28;20028;-78
2023/08/10 20:54:29;;;;;;;5.80;4.60;;;15.20;99.90;;;;;;8377245;28;20396;-81